createdAt,value
2022-10-23T00:00:12.702Z,86.09
2022-10-23T00:02:14.694Z,86.02
2022-10-23T00:04:20.349Z,86.16
2022-10-23T00:06:23.006Z,86.32
2022-10-23T00:08:24.864Z,86.21
2022-10-23T00:10:28.196Z,86.76
2022-10-23T00:12:30.225Z,86.26
2022-10-23T00:14:33.205Z,86.40
2022-10-23T00:16:35.644Z,86.74
2022-10-23T00:18:38.626Z,86.71
2022-10-23T00:20:40.642Z,86.68
2022-10-23T00:22:42.722Z,86.76
2022-10-23T00:24:45.571Z,86.84
2022-10-23T00:26:50.783Z,86.79
2022-10-23T00:28:54.559Z,86.95
2022-10-23T00:30:57.458Z,86.93
2022-10-23T00:32:59.299Z,86.63
2022-10-23T00:35:01.239Z,86.89
2022-10-23T00:37:03.133Z,86.47
2022-10-23T00:39:06.033Z,86.95
2022-10-23T00:41:09.993Z,87.02
2022-10-23T00:43:20.454Z,86.75
2022-10-23T00:45:26.652Z,86.78
2022-10-23T00:47:28.791Z,86.85
2022-10-23T00:49:32.478Z,86.69
2022-10-23T00:51:43.346Z,86.90
2022-10-23T00:54:00.965Z,86.87
2022-10-23T00:56:11.889Z,86.92
2022-10-23T00:58:18.444Z,86.79
2022-10-23T01:00:41.046Z,86.75
2022-10-23T01:02:43.341Z,86.87
2022-10-23T01:04:45.459Z,87.13
2022-10-23T01:06:49.812Z,86.91
2022-10-23T01:09:00.698Z,87.00
2022-10-23T01:11:15.254Z,87.09
2022-10-23T01:13:38.270Z,87.14
2022-10-23T01:16:02.895Z,87.35
2022-10-23T01:18:34.756Z,86.82
2022-10-23T01:20:43.724Z,86.82
2022-10-23T01:23:05.167Z,87.18
2022-10-23T01:25:36.185Z,86.75
2022-10-23T01:27:42.666Z,87.15
2022-10-23T01:29:49.952Z,87.06
2022-10-23T01:32:41.839Z,87.04
2022-10-23T01:34:43.699Z,86.92
2022-10-23T01:36:48.492Z,86.49
2022-10-23T01:38:57.302Z,86.86
2022-10-23T01:41:19.952Z,86.52
2022-10-23T01:43:30.380Z,86.62
2022-10-23T01:45:40.342Z,86.57
2022-10-23T01:47:43.692Z,86.58
2022-10-23T01:49:47.837Z,86.65
2022-10-23T01:51:54.573Z,86.71
2022-10-23T01:53:59.427Z,86.67
2022-10-23T01:56:05.979Z,86.48
2022-10-23T01:58:08.804Z,86.93
2022-10-23T02:00:14.404Z,86.86
2022-10-23T02:02:22.831Z,86.67
2022-10-23T02:04:36.729Z,86.90
2022-10-23T02:06:38.993Z,86.94
2022-10-23T02:08:40.998Z,86.49
2022-10-23T02:10:49.196Z,86.62
2022-10-23T02:12:58.425Z,86.81
2022-10-23T02:15:21.638Z,87.04
2022-10-23T02:17:46.465Z,86.98
2022-10-23T02:20:00.645Z,86.65
2022-10-23T02:22:11.027Z,86.63
2022-10-23T02:24:16.355Z,86.71
2022-10-23T02:26:24.395Z,86.56
2022-10-23T02:28:40.514Z,86.50
2022-10-23T02:30:46.692Z,86.51
2022-10-23T02:32:51.666Z,86.62
2022-10-23T02:34:53.632Z,86.49
2022-10-23T02:36:55.524Z,86.72
2022-10-23T02:38:57.681Z,86.50
2022-10-23T02:41:14.471Z,86.83
2022-10-23T02:43:34.353Z,86.75
2022-10-23T02:45:51.661Z,86.55
2022-10-23T02:48:04.332Z,86.34
2022-10-23T02:50:17.593Z,86.35
2022-10-23T02:52:28.526Z,86.24
2022-10-23T02:54:54.799Z,86.71
2022-10-23T02:57:40.099Z,86.31
2022-10-23T02:59:58.224Z,86.64
2022-10-23T03:02:16.694Z,86.43
2022-10-23T03:04:24.184Z,86.58
2022-10-23T03:06:26.667Z,86.44
2022-10-23T03:08:30.586Z,86.52
2022-10-23T03:10:32.657Z,86.90
2022-10-23T03:12:36.006Z,86.74
2022-10-23T03:14:41.014Z,86.84
2022-10-23T03:16:42.804Z,87.10
2022-10-23T03:18:44.900Z,87.12
2022-10-23T03:20:46.830Z,87.31
2022-10-23T03:22:48.986Z,86.83
2022-10-23T03:24:50.977Z,87.07
2022-10-23T03:26:52.788Z,87.04
2022-10-23T03:28:54.682Z,86.68
2022-10-23T03:30:56.562Z,86.64
2022-10-23T03:32:58.674Z,86.53
2022-10-23T03:35:00.759Z,86.45
2022-10-23T03:37:02.656Z,86.28
2022-10-23T03:39:05.698Z,86.64
2022-10-23T03:41:07.713Z,86.91
2022-10-23T03:43:09.620Z,86.57
2022-10-23T03:45:11.620Z,86.80
2022-10-23T03:47:13.768Z,86.63
2022-10-23T03:49:15.647Z,86.51
2022-10-23T03:51:17.465Z,86.92
2022-10-23T03:53:19.670Z,86.53
2022-10-23T03:55:21.804Z,86.51
2022-10-23T03:57:24.473Z,86.41
2022-10-23T03:59:26.372Z,86.64
2022-10-23T04:01:28.365Z,86.68
2022-10-23T04:03:30.275Z,86.89
2022-10-23T04:05:32.198Z,86.53
2022-10-23T04:07:34.207Z,86.80
2022-10-23T04:09:36.188Z,86.26
2022-10-23T04:11:39.049Z,86.12
2022-10-23T04:13:40.881Z,86.39
2022-10-23T04:15:49.749Z,85.75
2022-10-23T04:17:51.590Z,85.84
2022-10-23T04:19:53.481Z,85.62
2022-10-23T04:21:57.320Z,85.43
2022-10-23T04:23:59.113Z,85.53
2022-10-23T04:26:03.671Z,85.56
2022-10-23T04:28:05.747Z,85.34
2022-10-23T04:30:09.495Z,85.36
2022-10-23T04:32:11.435Z,85.64
2022-10-23T04:34:13.314Z,85.58
2022-10-23T04:36:15.386Z,85.55
2022-10-23T04:38:17.336Z,85.67
2022-10-23T04:40:19.265Z,85.73
2022-10-23T04:42:21.201Z,85.91
2022-10-23T04:44:23.166Z,85.70
2022-10-23T04:46:25.082Z,85.75
2022-10-23T04:48:29.117Z,85.71
2022-10-23T04:50:31.326Z,85.43
2022-10-23T04:52:33.343Z,85.40
2022-10-23T04:54:40.497Z,85.35
2022-10-23T04:56:42.413Z,85.72
2022-10-23T04:58:44.269Z,85.52
2022-10-23T05:00:47.337Z,85.21
2022-10-23T05:02:49.283Z,85.54
2022-10-23T05:04:51.332Z,85.66
2022-10-23T05:06:57.377Z,85.74
2022-10-23T05:08:59.365Z,85.60
2022-10-23T05:11:01.252Z,85.50
2022-10-23T05:13:04.151Z,85.96
2022-10-23T05:15:06.637Z,85.98
2022-10-23T05:17:21.243Z,85.88
2022-10-23T05:19:28.037Z,85.86
2022-10-23T05:21:35.601Z,85.78
2022-10-23T05:23:41.385Z,86.02
2022-10-23T05:25:43.294Z,85.73
2022-10-23T05:27:46.251Z,85.91
2022-10-23T05:29:48.098Z,86.15
2022-10-23T05:31:54.854Z,85.95
2022-10-23T05:33:57.128Z,86.04
2022-10-23T05:36:00.095Z,85.92
2022-10-23T05:38:02.775Z,85.83
2022-10-23T05:40:05.704Z,85.88
2022-10-23T05:42:07.752Z,85.99
2022-10-23T05:44:09.647Z,85.83
2022-10-23T05:46:11.511Z,85.78
2022-10-23T05:48:30.085Z,85.98
2022-10-23T05:50:38.896Z,85.83
2022-10-23T05:52:41.021Z,86.06
2022-10-23T05:54:46.032Z,85.58
2022-10-23T05:56:48.007Z,86.05
2022-10-23T05:58:49.975Z,86.00
2022-10-23T06:00:52.565Z,85.83
2022-10-23T06:02:54.432Z,85.93
2022-10-23T06:04:56.364Z,85.69
2022-10-23T06:06:58.329Z,85.87
2022-10-23T06:09:00.370Z,85.61
2022-10-23T06:11:07.868Z,85.64
2022-10-23T06:13:09.914Z,85.49
2022-10-23T06:15:12.141Z,85.52
2022-10-23T06:17:14.524Z,85.54
2022-10-23T06:19:16.458Z,85.74
2022-10-23T06:21:18.714Z,85.50
2022-10-23T06:23:20.675Z,85.67
2022-10-23T06:25:22.651Z,85.79
2022-10-23T06:27:24.547Z,85.56
2022-10-23T06:29:27.479Z,85.23
2022-10-23T06:31:29.332Z,85.33
2022-10-23T06:33:31.285Z,85.37
2022-10-23T06:35:33.198Z,85.35
2022-10-23T06:37:35.400Z,85.65
2022-10-23T06:39:37.322Z,85.10
2022-10-23T06:41:42.480Z,85.21
2022-10-23T06:43:44.797Z,85.26
2022-10-23T06:45:47.213Z,85.15
2022-10-23T06:47:52.308Z,85.32
2022-10-23T06:49:54.180Z,85.34
2022-10-23T06:51:56.178Z,85.28
2022-10-23T06:53:58.404Z,85.07
2022-10-23T06:56:01.384Z,85.01
2022-10-23T06:58:03.318Z,84.99
2022-10-23T07:00:05.832Z,85.39
2022-10-23T07:02:07.803Z,84.94
2022-10-23T07:04:09.863Z,84.99
2022-10-23T07:06:12.122Z,84.61
2022-10-23T07:08:14.820Z,84.75
2022-10-23T07:10:16.659Z,84.96
2022-10-23T07:12:18.637Z,85.08
2022-10-23T07:14:20.545Z,84.87
2022-10-23T07:16:23.919Z,84.75
2022-10-23T07:18:26.989Z,84.47
2022-10-23T07:20:28.959Z,84.27
2022-10-23T07:22:30.855Z,83.88
2022-10-23T07:24:37.203Z,84.20
2022-10-23T07:26:42.109Z,83.74
2022-10-23T07:28:46.669Z,83.65
2022-10-23T07:31:01.487Z,83.58
2022-10-23T07:33:04.501Z,83.36
2022-10-23T07:35:07.640Z,82.08
2022-10-23T07:37:09.645Z,81.82
2022-10-23T07:39:12.322Z,81.35
2022-10-23T07:41:14.537Z,79.96
2022-10-23T07:43:18.748Z,79.40
2022-10-23T07:45:20.704Z,79.38
2022-10-23T07:47:22.635Z,78.94
2022-10-23T07:49:24.529Z,78.92
2022-10-23T07:51:36.393Z,77.80
2022-10-23T07:53:39.032Z,77.48
2022-10-23T07:55:44.115Z,77.89
2022-10-23T07:57:46.104Z,77.51
2022-10-23T07:59:48.030Z,77.58
2022-10-23T08:01:52.704Z,78.41
2022-10-23T08:03:57.565Z,78.77
2022-10-23T08:06:00.193Z,79.54
2022-10-23T08:08:02.060Z,79.84
2022-10-23T08:10:04.385Z,80.06
2022-10-23T08:12:09.636Z,79.88
2022-10-23T08:14:11.585Z,80.08
2022-10-23T08:16:13.580Z,80.47
2022-10-23T08:18:16.261Z,80.46
2022-10-23T08:20:18.206Z,80.29
2022-10-23T08:22:20.090Z,81.03
2022-10-23T08:24:22.107Z,80.72
2022-10-23T08:26:25.431Z,80.90
2022-10-23T08:28:28.593Z,80.19
2022-10-23T08:30:30.864Z,80.61
2022-10-23T08:32:32.792Z,80.42
2022-10-23T08:34:34.791Z,79.85
2022-10-23T08:36:36.817Z,79.78
2022-10-23T08:38:38.790Z,79.44
2022-10-23T08:40:48.384Z,78.89
2022-10-23T08:43:11.472Z,78.62
2022-10-23T08:45:34.430Z,78.64
2022-10-23T08:47:55.983Z,78.44
2022-10-23T08:50:00.685Z,78.21
2022-10-23T08:52:14.157Z,77.93
2022-10-23T08:54:28.282Z,77.57
2022-10-23T08:56:44.449Z,78.36
2022-10-23T08:59:09.360Z,78.13
2022-10-23T09:01:28.916Z,78.46
2022-10-23T09:03:30.949Z,77.75
2022-10-23T09:05:55.725Z,77.97
2022-10-23T09:08:00.689Z,77.25
2022-10-23T09:10:14.501Z,76.45
2022-10-23T09:12:25.291Z,76.74
2022-10-23T09:14:42.645Z,76.50
2022-10-23T09:16:50.830Z,76.81
2022-10-23T09:18:54.463Z,75.97
2022-10-23T09:20:56.336Z,76.17
2022-10-23T09:23:01.329Z,76.83
2022-10-23T09:25:03.301Z,76.17
2022-10-23T09:29:19.637Z,76.68
2022-10-23T09:31:21.706Z,76.07
2022-10-23T09:33:26.604Z,76.15
2022-10-23T09:35:30.742Z,75.95
2022-10-23T09:37:36.204Z,76.52
2022-10-23T09:39:38.195Z,76.37
2022-10-23T09:41:40.792Z,75.37
2022-10-23T09:43:43.455Z,76.35
2022-10-23T09:46:06.228Z,75.83
2022-10-23T09:48:14.664Z,75.25
2022-10-23T09:50:23.728Z,74.49
2022-10-23T09:52:39.819Z,73.77
2022-10-23T09:54:47.693Z,74.67
2022-10-23T09:56:49.998Z,74.93
2022-10-23T09:59:02.099Z,74.50
2022-10-23T10:01:05.804Z,74.39
2022-10-23T10:03:19.150Z,73.83
2022-10-23T10:05:29.382Z,73.13
2022-10-23T10:07:33.484Z,73.83
2022-10-23T10:09:38.138Z,74.07
2022-10-23T10:12:10.748Z,74.32
2022-10-23T10:14:54.237Z,75.23
2022-10-23T10:17:17.670Z,75.60
2022-10-23T10:19:33.883Z,75.79
2022-10-23T10:21:59.020Z,76.35
2022-10-23T10:24:28.243Z,75.11
2022-10-23T10:26:59.343Z,75.54
2022-10-23T10:29:48.747Z,74.96
2022-10-23T10:32:15.384Z,75.99
2022-10-23T10:34:33.251Z,75.96
2022-10-23T10:36:54.994Z,75.89
2022-10-23T10:39:01.519Z,75.06
2022-10-23T10:41:20.576Z,75.42
2022-10-23T10:43:39.399Z,74.96
2022-10-23T10:46:03.980Z,75.30
2022-10-23T10:48:08.892Z,75.65
2022-10-23T10:50:16.789Z,75.39
2022-10-23T10:52:27.897Z,75.47
2022-10-23T10:54:54.323Z,75.22
2022-10-23T10:57:00.203Z,75.16
2022-10-23T10:59:10.897Z,74.49
2022-10-23T11:01:38.959Z,74.99
2022-10-23T11:03:52.569Z,74.55
2022-10-23T11:08:44.440Z,75.73
2022-10-23T11:11:16.884Z,74.92
2022-10-23T11:13:29.513Z,75.34
2022-10-23T11:15:41.117Z,75.24
2022-10-23T11:17:49.387Z,74.61
2022-10-23T11:20:06.401Z,73.97
2022-10-23T11:22:17.207Z,74.53
2022-10-23T11:24:21.991Z,73.68
2022-10-23T11:26:42.272Z,72.37
2022-10-23T11:29:03.368Z,71.24
2022-10-23T11:31:14.436Z,71.27
2022-10-23T11:33:22.103Z,71.24
2022-10-23T11:35:45.757Z,72.16
2022-10-23T11:38:13.104Z,72.58
2022-10-23T11:40:26.001Z,72.16
2022-10-23T11:42:45.808Z,71.73
2022-10-23T11:44:50.963Z,72.66
2022-10-23T11:47:05.918Z,72.48
2022-10-23T11:49:21.223Z,72.11
2022-10-23T11:51:38.317Z,71.99
2022-10-23T11:53:40.884Z,72.41
2022-10-23T11:55:58.471Z,71.68
2022-10-23T11:58:31.971Z,72.88
2022-10-23T12:00:40.198Z,72.06
2022-10-23T12:02:43.643Z,72.52
2022-10-23T12:04:52.164Z,73.24
2022-10-23T12:07:01.833Z,72.94
2022-10-23T12:09:09.573Z,73.63
2022-10-23T12:11:51.630Z,74.29
2022-10-23T12:13:53.801Z,73.89
2022-10-23T12:15:58.525Z,74.47
2022-10-23T12:18:16.719Z,74.03
2022-10-23T12:20:24.728Z,73.62
2022-10-23T12:25:04.256Z,73.55
2022-10-23T12:27:26.813Z,73.57
2022-10-23T12:30:15.935Z,74.15
2022-10-23T12:32:28.103Z,73.46
2022-10-23T12:34:29.988Z,73.29
2022-10-23T12:36:43.931Z,73.60
2022-10-23T12:38:47.432Z,73.29
2022-10-23T12:41:03.110Z,73.29
2022-10-23T12:43:23.560Z,73.43
2022-10-23T12:45:29.524Z,73.45
2022-10-23T12:47:32.334Z,73.28
2022-10-23T12:49:35.739Z,73.38
2022-10-23T12:51:38.640Z,73.54
2022-10-23T12:53:41.525Z,73.61
2022-10-23T12:56:01.539Z,73.28
2022-10-23T12:58:04.432Z,73.90
2022-10-23T13:00:12.578Z,73.43
2022-10-23T13:02:21.986Z,74.09
2022-10-23T13:04:28.154Z,73.86
2022-10-23T13:06:30.215Z,73.67
2022-10-23T13:08:45.332Z,74.36
2022-10-23T13:10:49.666Z,73.99
2022-10-23T13:13:05.057Z,74.26
2022-10-23T13:15:06.893Z,73.76
2022-10-23T13:17:11.730Z,74.72
2022-10-23T13:19:27.567Z,74.20
2022-10-23T13:21:31.046Z,74.82
2022-10-23T13:23:35.066Z,74.50
2022-10-23T13:25:39.337Z,74.65
2022-10-23T13:27:41.856Z,74.65
2022-10-23T13:29:44.055Z,74.63
2022-10-23T13:31:46.352Z,74.77
2022-10-23T13:34:01.347Z,75.21
2022-10-23T13:36:05.513Z,74.86
2022-10-23T13:38:11.665Z,75.35
2022-10-23T13:40:28.322Z,75.00
2022-10-23T13:42:30.288Z,75.48
2022-10-23T13:44:37.688Z,75.43
2022-10-23T13:46:39.872Z,75.54
2022-10-23T13:48:41.893Z,75.59
2022-10-23T13:50:47.030Z,75.92
2022-10-23T13:52:49.209Z,75.43
2022-10-23T13:54:51.254Z,75.22
2022-10-23T13:56:56.122Z,75.25
2022-10-23T13:59:00.418Z,75.34
2022-10-23T14:01:02.989Z,75.25
2022-10-23T14:03:05.786Z,75.37
2022-10-23T14:05:10.199Z,75.27
2022-10-23T14:07:12.251Z,75.51
2022-10-23T14:09:17.154Z,75.78
2022-10-23T14:11:21.570Z,75.23
2022-10-23T14:13:24.801Z,74.82
2022-10-23T14:15:27.337Z,75.33
2022-10-23T14:17:29.337Z,75.31
2022-10-23T14:19:33.502Z,74.66
2022-10-23T14:21:35.609Z,74.27
2022-10-23T14:23:38.109Z,74.47
2022-10-23T14:25:40.458Z,73.99
2022-10-23T14:27:42.865Z,74.11
2022-10-23T14:29:45.201Z,74.18
2022-10-23T14:31:47.189Z,74.42
2022-10-23T14:33:57.308Z,73.86
2022-10-23T14:35:59.546Z,74.06
2022-10-23T14:38:01.810Z,74.03
2022-10-23T14:40:05.881Z,74.00
2022-10-23T14:42:07.889Z,73.89
2022-10-23T14:44:10.900Z,74.25
2022-10-23T14:46:16.338Z,74.45
2022-10-23T14:48:18.769Z,74.68
2022-10-23T14:50:21.749Z,74.51
2022-10-23T14:52:24.707Z,74.79
2022-10-23T14:54:28.860Z,75.26
2022-10-23T14:56:34.467Z,75.04
2022-10-23T14:58:36.551Z,75.21
2022-10-23T15:00:39.742Z,74.85
2022-10-23T15:02:42.014Z,75.66
2022-10-23T15:04:44.472Z,75.40
2022-10-23T15:06:47.506Z,75.66
2022-10-23T15:08:55.874Z,75.69
2022-10-23T15:11:01.767Z,75.58
2022-10-23T15:13:03.743Z,75.73
2022-10-23T15:15:07.669Z,75.75
2022-10-23T15:17:15.372Z,75.92
2022-10-23T15:19:18.851Z,76.40
2022-10-23T15:21:21.131Z,76.30
2022-10-23T15:23:23.666Z,76.57
2022-10-23T15:25:27.595Z,76.75
2022-10-23T15:27:29.728Z,76.80
2022-10-23T15:29:32.221Z,76.86
2022-10-23T15:31:41.161Z,76.44
2022-10-23T15:33:43.253Z,76.33
2022-10-23T15:35:45.669Z,76.66
2022-10-23T15:37:47.733Z,76.42
2022-10-23T15:39:50.710Z,76.81
2022-10-23T15:41:56.359Z,76.54
2022-10-23T15:44:00.039Z,76.24
2022-10-23T15:46:03.487Z,76.71
2022-10-23T15:48:06.165Z,76.32
2022-10-23T15:50:09.072Z,76.63
2022-10-23T15:52:11.922Z,77.30
2022-10-23T15:54:17.303Z,77.01
2022-10-23T15:56:19.293Z,76.89
2022-10-23T15:58:22.570Z,76.95
2022-10-23T16:00:24.925Z,77.22
2022-10-23T16:02:27.553Z,77.07
2022-10-23T16:04:30.325Z,77.25
2022-10-23T16:06:32.485Z,77.28
2022-10-23T16:08:35.803Z,77.70
2022-10-23T16:10:42.271Z,78.03
2022-10-23T16:12:44.422Z,77.82
2022-10-23T16:14:47.371Z,78.05
2022-10-23T16:16:49.759Z,78.12
2022-10-23T16:18:52.332Z,78.06
2022-10-23T16:20:56.218Z,78.00
2022-10-23T16:23:01.993Z,78.24
2022-10-23T16:25:05.324Z,78.54
2022-10-23T16:27:07.601Z,78.58
2022-10-23T16:29:11.811Z,78.47
2022-10-23T16:31:20.800Z,79.18
2022-10-23T16:33:22.992Z,79.21
2022-10-23T16:35:25.608Z,79.49
2022-10-23T16:37:27.942Z,79.88
2022-10-23T16:39:31.741Z,80.06
2022-10-23T16:41:34.002Z,80.03
2022-10-23T16:43:37.706Z,80.24
2022-10-23T16:45:40.218Z,80.39
2022-10-23T16:47:45.564Z,80.66
2022-10-23T16:49:50.051Z,80.93
2022-10-23T16:51:54.682Z,80.75
2022-10-23T16:54:00.177Z,80.70
2022-10-23T16:56:11.551Z,80.53
2022-10-23T16:58:20.531Z,80.85
2022-10-23T17:00:23.779Z,80.76
2022-10-23T17:02:27.425Z,81.11
2022-10-23T17:04:29.885Z,81.03
2022-10-23T17:06:36.527Z,81.14
2022-10-23T17:08:42.698Z,81.08
2022-10-23T17:10:50.237Z,81.07
2022-10-23T17:12:54.264Z,81.42
2022-10-23T17:15:02.577Z,81.37
2022-10-23T17:17:19.974Z,81.36
2022-10-23T17:19:43.808Z,80.95
2022-10-23T17:21:55.713Z,81.22
2022-10-23T17:23:59.412Z,80.86
2022-10-23T17:26:04.483Z,81.33
2022-10-23T17:28:06.923Z,80.80
2022-10-23T17:30:12.880Z,80.75
2022-10-23T17:32:17.232Z,81.48
2022-10-23T17:34:23.794Z,82.05
2022-10-23T17:36:29.927Z,82.33
2022-10-23T17:38:36.507Z,82.21
2022-10-23T17:40:40.548Z,82.35
2022-10-23T17:42:43.117Z,83.02
2022-10-23T17:44:50.725Z,82.85
2022-10-23T17:46:55.421Z,82.82
2022-10-23T17:51:07.991Z,82.99
2022-10-23T17:53:11.772Z,82.75
2022-10-23T17:55:15.043Z,82.66
2022-10-23T17:57:20.971Z,82.78
2022-10-23T17:59:30.305Z,82.68
2022-10-23T18:01:34.062Z,82.77
2022-10-23T18:03:37.638Z,82.99
2022-10-23T18:05:41.455Z,82.79
2022-10-23T18:07:49.175Z,82.20
2022-10-23T18:09:54.696Z,82.42
2022-10-23T18:12:00.284Z,82.44
2022-10-23T18:14:04.935Z,82.53
2022-10-23T18:16:12.520Z,82.22
2022-10-23T18:18:25.147Z,82.46
2022-10-23T18:20:33.056Z,82.27
2022-10-23T18:22:35.920Z,82.37
2022-10-23T18:24:41.100Z,82.81
2022-10-23T18:26:45.674Z,83.15
2022-10-23T18:28:51.344Z,83.77
2022-10-23T18:30:57.603Z,83.56
2022-10-23T18:33:10.250Z,83.95
2022-10-23T18:35:16.193Z,84.23
2022-10-23T18:37:19.964Z,84.53
2022-10-23T18:39:29.220Z,84.73
2022-10-23T18:41:39.862Z,84.50
2022-10-23T18:43:58.688Z,84.50
2022-10-23T18:46:09.439Z,85.19
2022-10-23T18:48:28.431Z,84.95
2022-10-23T18:50:36.154Z,85.02
2022-10-23T18:52:39.680Z,84.87
2022-10-23T18:54:43.485Z,85.15
2022-10-23T18:56:54.292Z,85.13
2022-10-23T18:58:58.770Z,84.76
2022-10-23T19:01:04.297Z,84.93
2022-10-23T19:03:18.018Z,85.04
2022-10-23T19:05:21.031Z,84.08
2022-10-23T19:07:24.571Z,84.60
2022-10-23T19:09:27.226Z,84.55
2022-10-23T19:11:29.938Z,85.24
2022-10-23T19:13:39.823Z,85.59
2022-10-23T19:15:44.290Z,85.24
2022-10-23T19:18:02.024Z,85.48
2022-10-23T19:22:37.845Z,85.65
2022-10-23T19:24:52.212Z,85.72
2022-10-23T19:27:01.894Z,85.25
2022-10-23T19:29:08.023Z,85.23
2022-10-23T19:31:17.827Z,85.15
2022-10-23T19:33:31.567Z,85.27
2022-10-23T19:35:34.427Z,85.94
2022-10-23T19:37:48.941Z,86.24
2022-10-23T19:40:07.389Z,86.12
2022-10-23T19:42:11.672Z,86.63
2022-10-23T19:44:17.880Z,86.36
2022-10-23T19:46:25.457Z,86.12
2022-10-23T19:48:36.041Z,85.88
2022-10-23T19:50:38.546Z,85.97
2022-10-23T19:52:44.703Z,86.13
2022-10-23T19:54:59.526Z,86.35
2022-10-23T19:57:08.551Z,86.00
2022-10-23T19:59:13.772Z,86.19
2022-10-23T20:01:18.526Z,86.01
2022-10-23T20:03:22.683Z,86.15
2022-10-23T20:05:31.984Z,86.08
2022-10-23T20:07:46.652Z,86.29
2022-10-23T20:09:50.159Z,86.08
2022-10-23T20:11:54.770Z,86.47
2022-10-23T20:14:00.537Z,86.83
2022-10-23T20:16:03.221Z,86.44
2022-10-23T20:18:09.728Z,86.60
2022-10-23T20:20:15.506Z,86.21
2022-10-23T20:22:21.110Z,86.07
2022-10-23T20:24:28.074Z,86.21
2022-10-23T20:26:30.952Z,86.01
2022-10-23T20:28:37.033Z,85.99
2022-10-23T20:30:43.149Z,86.21
2022-10-23T20:32:48.746Z,85.95
2022-10-23T20:34:53.556Z,85.70
2022-10-23T20:36:56.337Z,85.48
2022-10-23T20:39:01.363Z,86.01
2022-10-23T20:41:07.640Z,86.09
2022-10-23T20:43:10.026Z,86.13
2022-10-23T20:45:12.134Z,86.35
2022-10-23T20:47:17.470Z,86.42
2022-10-23T20:49:20.235Z,86.38
2022-10-23T20:51:24.242Z,86.16
2022-10-23T20:53:27.508Z,86.50
2022-10-23T20:55:29.840Z,86.16
2022-10-23T20:57:32.299Z,86.29
2022-10-23T20:59:37.516Z,85.93
2022-10-23T21:01:42.530Z,86.18
2022-10-23T21:03:51.350Z,86.04
2022-10-23T21:05:53.709Z,85.95
2022-10-23T21:07:56.314Z,86.13
2022-10-23T21:09:59.613Z,85.97
2022-10-23T21:12:01.584Z,86.08
2022-10-23T21:14:04.016Z,86.11
2022-10-23T21:16:14.997Z,86.04
2022-10-23T21:18:33.645Z,85.75
2022-10-23T21:20:40.623Z,85.62
2022-10-23T21:22:42.684Z,86.14
2022-10-23T21:24:45.365Z,86.07
2022-10-23T21:26:47.890Z,86.18
2022-10-23T21:28:56.385Z,86.16
2022-10-23T21:31:13.999Z,85.87
2022-10-23T21:33:16.078Z,86.75
2022-10-23T21:35:17.948Z,86.72
2022-10-23T21:37:22.144Z,85.92
2022-10-23T21:39:24.207Z,85.60
2022-10-23T21:41:32.094Z,85.84
2022-10-23T21:43:34.906Z,85.85
2022-10-23T21:45:36.953Z,86.10
2022-10-23T21:47:39.116Z,86.16
2022-10-23T21:49:41.006Z,86.60
2022-10-23T21:51:43.328Z,86.60
2022-10-23T21:53:45.295Z,86.68
2022-10-23T21:55:47.300Z,86.37
2022-10-23T21:57:49.493Z,86.45
2022-10-23T21:59:54.254Z,86.26
2022-10-23T22:01:56.505Z,85.93
2022-10-23T22:03:58.830Z,86.73
2022-10-23T22:06:01.749Z,86.75
2022-10-23T22:08:04.211Z,86.81
2022-10-23T22:10:07.634Z,86.73
2022-10-23T22:12:12.829Z,86.66
2022-10-23T22:14:14.733Z,86.82
2022-10-23T22:16:17.833Z,87.11
2022-10-23T22:18:19.921Z,86.60
2022-10-23T22:20:21.856Z,86.80
2022-10-23T22:22:24.057Z,86.54
2022-10-23T22:24:26.034Z,86.74
2022-10-23T22:26:31.293Z,86.85
2022-10-23T22:28:33.354Z,86.81
2022-10-23T22:30:38.196Z,86.61
2022-10-23T22:32:40.268Z,86.58
2022-10-23T22:34:52.362Z,86.63
2022-10-23T22:36:56.573Z,86.58
2022-10-23T22:38:58.560Z,86.48
2022-10-23T22:41:02.248Z,86.49
2022-10-23T22:43:07.607Z,86.48
2022-10-23T22:45:10.830Z,86.50
2022-10-23T22:47:12.737Z,86.76
2022-10-23T22:49:14.889Z,86.67
2022-10-23T22:51:19.180Z,86.46
2022-10-23T22:53:21.173Z,86.46
2022-10-23T22:55:24.148Z,86.38
2022-10-23T22:59:29.107Z,86.45
2022-10-23T23:01:35.202Z,86.45
2022-10-23T23:03:37.746Z,86.52
2022-10-23T23:05:47.885Z,86.43
2022-10-23T23:07:50.973Z,86.71
2022-10-23T23:09:55.561Z,86.61
2022-10-23T23:11:58.007Z,86.34
2022-10-23T23:14:01.279Z,86.39
2022-10-23T23:16:04.546Z,86.42
2022-10-23T23:18:06.868Z,86.53
2022-10-23T23:20:09.559Z,86.51
2022-10-23T23:22:11.452Z,86.63
2022-10-23T23:24:13.487Z,86.81
2022-10-23T23:26:16.313Z,86.53
2022-10-23T23:28:21.442Z,86.71
2022-10-23T23:30:23.788Z,86.58
2022-10-23T23:32:25.778Z,86.71
2022-10-23T23:34:27.939Z,86.39
2022-10-23T23:36:30.038Z,86.59
2022-10-23T23:38:31.912Z,86.56
2022-10-23T23:40:34.212Z,87.01
2022-10-23T23:42:37.166Z,86.29
2022-10-23T23:44:45.951Z,86.38
2022-10-23T23:46:58.830Z,86.40
2022-10-23T23:49:01.812Z,86.80
2022-10-23T23:51:04.861Z,86.62
2022-10-23T23:53:06.883Z,86.77
2022-10-23T23:55:09.231Z,86.39
2022-10-23T23:57:13.174Z,86.60
2022-10-23T23:59:16.255Z,86.67
